sensor_id;sensor_type;location;lat;lon;timestamp;pressure;altitude;pressure_sealevel;temperature;humidity
24620;BME280;12763;55.802;37.404;2023-05-31T00:00:48;99148.94;;;16.17;91.34
24620;BME280;12763;55.802;37.404;2023-05-31T00:03:14;99153.66;;;16.17;91.89
24620;BME280;12763;55.802;37.404;2023-05-31T00:05:40;99143.66;;;15.89;92.87
24620;BME280;12763;55.802;37.404;2023-05-31T00:08:05;99141.75;;;15.95;93.42
24620;BME280;12763;55.802;37.404;2023-05-31T00:10:31;99129.94;;;16.09;92.29
24620;BME280;12763;55.802;37.404;2023-05-31T00:12:57;99134.66;;;16.09;91.29
24620;BME280;12763;55.802;37.404;2023-05-31T00:15:24;99144.44;;;16.11;91.52
24620;BME280;12763;55.802;37.404;2023-05-31T00:17:49;99151.88;;;16.06;91.00
24620;BME280;12763;55.802;37.404;2023-05-31T00:20:15;99150.94;;;15.95;92.36
24620;BME280;12763;55.802;37.404;2023-05-31T00:22:41;99164.06;;;16.00;91.78
24620;BME280;12763;55.802;37.404;2023-05-31T00:25:07;99154.31;;;15.70;93.64
24620;BME280;12763;55.802;37.404;2023-05-31T00:27:33;99164.63;;;15.75;93.85
24620;BME280;12763;55.802;37.404;2023-05-31T00:29:59;99161.22;;;15.68;94.18
24620;BME280;12763;55.802;37.404;2023-05-31T00:32:25;99161.88;;;15.53;95.26
24620;BME280;12763;55.802;37.404;2023-05-31T00:34:52;99170.06;;;15.43;96.95
24620;BME280;12763;55.802;37.404;2023-05-31T00:37:18;99169.47;;;15.41;97.38
24620;BME280;12763;55.802;37.404;2023-05-31T00:39:44;99177.19;;;15.34;97.52
24620;BME280;12763;55.802;37.404;2023-05-31T00:42:10;99165.75;;;14.92;100.00
24620;BME280;12763;55.802;37.404;2023-05-31T00:44:36;99172.56;;;15.01;100.00
24620;BME280;12763;55.802;37.404;2023-05-31T00:47:02;99162.44;;;15.12;99.75
24620;BME280;12763;55.802;37.404;2023-05-31T00:49:28;99156.88;;;15.34;97.77
24620;BME280;12763;55.802;37.404;2023-05-31T00:51:55;99149.84;;;15.26;96.92
24620;BME280;12763;55.802;37.404;2023-05-31T00:54:21;99152.16;;;15.12;98.82
24620;BME280;12763;55.802;37.404;2023-05-31T00:56:48;99154.78;;;15.02;99.74
24620;BME280;12763;55.802;37.404;2023-05-31T00:59:16;99151.81;;;15.09;99.11
24620;BME280;12763;55.802;37.404;2023-05-31T01:01:42;99143.47;;;15.09;100.00
24620;BME280;12763;55.802;37.404;2023-05-31T01:04:13;99137.09;;;15.08;99.87
24620;BME280;12763;55.802;37.404;2023-05-31T01:06:39;99148.25;;;15.13;99.79
24620;BME280;12763;55.802;37.404;2023-05-31T01:09:06;99140.53;;;15.15;100.00
24620;BME280;12763;55.802;37.404;2023-05-31T01:17:17;99160.84;;;15.38;99.34
24620;BME280;12763;55.802;37.404;2023-05-31T01:19:52;99147.06;;;15.26;99.48
24620;BME280;12763;55.802;37.404;2023-05-31T01:27:48;99156.81;;;15.28;98.17
24620;BME280;12763;55.802;37.404;2023-05-31T01:30:16;99159.88;;;15.27;99.51
24620;BME280;12763;55.802;37.404;2023-05-31T01:32:43;99164.88;;;15.08;100.00
24620;BME280;12763;55.802;37.404;2023-05-31T01:35:10;99144.59;;;15.29;100.00
24620;BME280;12763;55.802;37.404;2023-05-31T01:37:36;99139.09;;;15.35;99.30
24620;BME280;12763;55.802;37.404;2023-05-31T01:40:04;99134.75;;;15.22;100.00
24620;BME280;12763;55.802;37.404;2023-05-31T01:42:31;99127.94;;;15.51;99.56
24620;BME280;12763;55.802;37.404;2023-05-31T01:44:59;99140.19;;;15.12;100.00
24620;BME280;12763;55.802;37.404;2023-05-31T01:47:25;99140.06;;;15.23;100.00
24620;BME280;12763;55.802;37.404;2023-05-31T01:49:52;99142.91;;;15.07;100.00
24620;BME280;12763;55.802;37.404;2023-05-31T01:52:19;99149.44;;;15.17;100.00
24620;BME280;12763;55.802;37.404;2023-05-31T01:54:45;99139.16;;;15.40;100.00
24620;BME280;12763;55.802;37.404;2023-05-31T01:57:12;99140.03;;;15.62;100.00
24620;BME280;12763;55.802;37.404;2023-05-31T01:59:41;99150.53;;;15.81;99.00
24620;BME280;12763;55.802;37.404;2023-05-31T02:02:09;99142.75;;;15.57;100.00
24620;BME280;12763;55.802;37.404;2023-05-31T02:04:35;99143.78;;;15.77;99.94
24620;BME280;12763;55.802;37.404;2023-05-31T02:07:02;99143.50;;;15.74;100.00
24620;BME280;12763;55.802;37.404;2023-05-31T02:09:28;99154.34;;;15.49;100.00
24620;BME280;12763;55.802;37.404;2023-05-31T02:11:54;99147.75;;;15.81;99.93
24620;BME280;12763;55.802;37.404;2023-05-31T02:14:20;99134.31;;;15.73;100.00
24620;BME280;12763;55.802;37.404;2023-05-31T02:16:46;99132.38;;;16.01;98.86
24620;BME280;12763;55.802;37.404;2023-05-31T02:19:12;99145.59;;;15.88;99.48
24620;BME280;12763;55.802;37.404;2023-05-31T02:21:40;99137.50;;;15.87;99.73
24620;BME280;12763;55.802;37.404;2023-05-31T02:24:08;99143.13;;;15.92;100.00
24620;BME280;12763;55.802;37.404;2023-05-31T02:26:34;99136.00;;;16.01;99.52
24620;BME280;12763;55.802;37.404;2023-05-31T02:29:01;99138.13;;;15.94;99.83
24620;BME280;12763;55.802;37.404;2023-05-31T02:31:27;99142.81;;;16.15;98.20
24620;BME280;12763;55.802;37.404;2023-05-31T02:33:53;99141.13;;;16.14;98.13
24620;BME280;12763;55.802;37.404;2023-05-31T02:36:19;99145.53;;;16.10;97.48
24620;BME280;12763;55.802;37.404;2023-05-31T02:38:45;99136.22;;;16.26;97.52
24620;BME280;12763;55.802;37.404;2023-05-31T02:41:12;99136.31;;;16.36;96.33
24620;BME280;12763;55.802;37.404;2023-05-31T02:43:38;99139.59;;;16.28;96.58
24620;BME280;12763;55.802;37.404;2023-05-31T02:46:04;99144.00;;;16.24;96.58
24620;BME280;12763;55.802;37.404;2023-05-31T02:48:31;99145.59;;;16.15;97.65
24620;BME280;12763;55.802;37.404;2023-05-31T02:50:57;99151.03;;;16.05;97.78
24620;BME280;12763;55.802;37.404;2023-05-31T02:53:44;99151.56;;;16.02;98.48
24620;BME280;12763;55.802;37.404;2023-05-31T02:56:14;99151.53;;;15.97;99.50
24620;BME280;12763;55.802;37.404;2023-05-31T02:58:58;99149.72;;;16.13;97.42
24620;BME280;12763;55.802;37.404;2023-05-31T03:01:31;99155.66;;;16.21;97.25
24620;BME280;12763;55.802;37.404;2023-05-31T03:04:30;99156.78;;;16.20;96.87
24620;BME280;12763;55.802;37.404;2023-05-31T03:06:58;99165.59;;;15.85;99.66
24620;BME280;12763;55.802;37.404;2023-05-31T03:09:24;99169.81;;;15.66;100.00
24620;BME280;12763;55.802;37.404;2023-05-31T03:11:51;99172.81;;;15.60;100.00
24620;BME280;12763;55.802;37.404;2023-05-31T03:14:19;99177.44;;;15.76;100.00
24620;BME280;12763;55.802;37.404;2023-05-31T03:16:47;99180.94;;;15.45;100.00
24620;BME280;12763;55.802;37.404;2023-05-31T03:19:13;99173.53;;;15.50;100.00
24620;BME280;12763;55.802;37.404;2023-05-31T03:21:41;99177.66;;;15.48;100.00
24620;BME280;12763;55.802;37.404;2023-05-31T03:24:08;99184.72;;;15.39;100.00
24620;BME280;12763;55.802;37.404;2023-05-31T03:26:35;99203.09;;;15.40;100.00
24620;BME280;12763;55.802;37.404;2023-05-31T03:29:01;99200.00;;;14.98;100.00
24620;BME280;12763;55.802;37.404;2023-05-31T03:31:27;99186.91;;;14.93;100.00
24620;BME280;12763;55.802;37.404;2023-05-31T03:33:55;99193.25;;;15.10;100.00
24620;BME280;12763;55.802;37.404;2023-05-31T03:36:22;99191.91;;;15.13;100.00
24620;BME280;12763;55.802;37.404;2023-05-31T03:38:48;99183.81;;;15.11;100.00
24620;BME280;12763;55.802;37.404;2023-05-31T03:41:16;99192.28;;;14.83;100.00
24620;BME280;12763;55.802;37.404;2023-05-31T03:43:42;99188.03;;;14.97;100.00
24620;BME280;12763;55.802;37.404;2023-05-31T03:46:09;99175.75;;;15.10;100.00
24620;BME280;12763;55.802;37.404;2023-05-31T03:48:36;99187.72;;;15.10;100.00
24620;BME280;12763;55.802;37.404;2023-05-31T03:51:02;99184.00;;;15.05;100.00
24620;BME280;12763;55.802;37.404;2023-05-31T03:53:29;99191.09;;;14.96;100.00
24620;BME280;12763;55.802;37.404;2023-05-31T03:55:56;99197.50;;;14.96;100.00
24620;BME280;12763;55.802;37.404;2023-05-31T03:58:22;99197.78;;;15.16;100.00
24620;BME280;12763;55.802;37.404;2023-05-31T04:00:49;99203.06;;;14.96;100.00
24620;BME280;12763;55.802;37.404;2023-05-31T04:03:16;99200.72;;;14.88;100.00
24620;BME280;12763;55.802;37.404;2023-05-31T04:05:43;99192.47;;;14.77;100.00
24620;BME280;12763;55.802;37.404;2023-05-31T04:08:09;99188.19;;;14.86;100.00
24620;BME280;12763;55.802;37.404;2023-05-31T04:10:35;99169.00;;;15.06;100.00
24620;BME280;12763;55.802;37.404;2023-05-31T04:13:01;99175.03;;;15.19;100.00
24620;BME280;12763;55.802;37.404;2023-05-31T04:15:28;99170.59;;;15.18;100.00
24620;BME280;12763;55.802;37.404;2023-05-31T04:17:58;99172.19;;;15.14;100.00
24620;BME280;12763;55.802;37.404;2023-05-31T04:20:24;99174.00;;;15.25;100.00
24620;BME280;12763;55.802;37.404;2023-05-31T04:22:50;99173.66;;;15.00;100.00
24620;BME280;12763;55.802;37.404;2023-05-31T04:25:18;99171.16;;;15.20;100.00
24620;BME280;12763;55.802;37.404;2023-05-31T04:27:46;99173.56;;;15.34;100.00
24620;BME280;12763;55.802;37.404;2023-05-31T04:30:13;99170.44;;;15.30;100.00
24620;BME280;12763;55.802;37.404;2023-05-31T04:32:41;99176.06;;;15.13;100.00
24620;BME280;12763;55.802;37.404;2023-05-31T04:35:07;99173.19;;;15.08;100.00
24620;BME280;12763;55.802;37.404;2023-05-31T04:37:38;99167.97;;;15.12;100.00
24620;BME280;12763;55.802;37.404;2023-05-31T04:40:07;99162.88;;;15.25;100.00
24620;BME280;12763;55.802;37.404;2023-05-31T04:42:35;99152.00;;;15.02;100.00
24620;BME280;12763;55.802;37.404;2023-05-31T04:45:03;99161.31;;;14.91;100.00
24620;BME280;12763;55.802;37.404;2023-05-31T04:47:35;99168.03;;;15.17;100.00
24620;BME280;12763;55.802;37.404;2023-05-31T04:50:01;99160.69;;;15.27;100.00
24620;BME280;12763;55.802;37.404;2023-05-31T04:52:30;99154.97;;;15.56;100.00
24620;BME280;12763;55.802;37.404;2023-05-31T04:54:58;99140.25;;;15.60;100.00
24620;BME280;12763;55.802;37.404;2023-05-31T04:57:25;99138.84;;;15.58;100.00
24620;BME280;12763;55.802;37.404;2023-05-31T04:59:55;99146.47;;;15.46;100.00
24620;BME280;12763;55.802;37.404;2023-05-31T05:02:23;99144.66;;;15.35;100.00
24620;BME280;12763;55.802;37.404;2023-05-31T05:04:49;99154.81;;;15.24;100.00
24620;BME280;12763;55.802;37.404;2023-05-31T05:07:16;99160.84;;;15.38;100.00
24620;BME280;12763;55.802;37.404;2023-05-31T05:09:43;99160.63;;;15.44;100.00
24620;BME280;12763;55.802;37.404;2023-05-31T05:12:09;99165.22;;;15.34;100.00
24620;BME280;12763;55.802;37.404;2023-05-31T05:14:42;99166.44;;;15.21;100.00
24620;BME280;12763;55.802;37.404;2023-05-31T05:17:07;99169.84;;;15.06;100.00
24620;BME280;12763;55.802;37.404;2023-05-31T05:19:33;99171.56;;;15.29;100.00
24620;BME280;12763;55.802;37.404;2023-05-31T05:22:00;99172.84;;;15.43;100.00
24620;BME280;12763;55.802;37.404;2023-05-31T05:24:26;99178.00;;;15.51;100.00
24620;BME280;12763;55.802;37.404;2023-05-31T05:26:53;99170.31;;;15.20;100.00
24620;BME280;12763;55.802;37.404;2023-05-31T05:29:19;99182.06;;;15.05;100.00
24620;BME280;12763;55.802;37.404;2023-05-31T05:31:45;99167.66;;;15.08;100.00
24620;BME280;12763;55.802;37.404;2023-05-31T05:34:13;99175.19;;;15.29;100.00
24620;BME280;12763;55.802;37.404;2023-05-31T05:36:40;99184.19;;;14.98;100.00
24620;BME280;12763;55.802;37.404;2023-05-31T05:39:06;99178.28;;;14.95;100.00
24620;BME280;12763;55.802;37.404;2023-05-31T05:41:34;99178.75;;;15.08;100.00
24620;BME280;12763;55.802;37.404;2023-05-31T05:44:02;99175.91;;;15.03;100.00
24620;BME280;12763;55.802;37.404;2023-05-31T05:46:28;99168.63;;;15.19;100.00
24620;BME280;12763;55.802;37.404;2023-05-31T05:48:54;99163.78;;;15.09;100.00
24620;BME280;12763;55.802;37.404;2023-05-31T05:51:22;99158.97;;;15.21;100.00
24620;BME280;12763;55.802;37.404;2023-05-31T05:53:48;99158.81;;;15.11;100.00
24620;BME280;12763;55.802;37.404;2023-05-31T05:56:15;99154.31;;;15.27;100.00
24620;BME280;12763;55.802;37.404;2023-05-31T05:58:53;99147.00;;;15.43;100.00
24620;BME280;12763;55.802;37.404;2023-05-31T06:01:52;99132.19;;;15.37;100.00
24620;BME280;12763;55.802;37.404;2023-05-31T06:04:21;99132.66;;;15.29;100.00
24620;BME280;12763;55.802;37.404;2023-05-31T06:06:47;99135.44;;;15.29;100.00
24620;BME280;12763;55.802;37.404;2023-05-31T06:09:15;99129.34;;;15.32;100.00
24620;BME280;12763;55.802;37.404;2023-05-31T06:11:42;99114.16;;;15.40;100.00
24620;BME280;12763;55.802;37.404;2023-05-31T06:14:09;99100.19;;;15.35;100.00
24620;BME280;12763;55.802;37.404;2023-05-31T06:16:42;99110.88;;;15.21;100.00
24620;BME280;12763;55.802;37.404;2023-05-31T06:19:10;99123.91;;;15.42;100.00
24620;BME280;12763;55.802;37.404;2023-05-31T06:21:36;99126.34;;;15.39;100.00
24620;BME280;12763;55.802;37.404;2023-05-31T06:24:03;99122.94;;;15.32;100.00
24620;BME280;12763;55.802;37.404;2023-05-31T06:26:29;99123.47;;;15.28;100.00
24620;BME280;12763;55.802;37.404;2023-05-31T06:28:56;99116.09;;;15.17;100.00
24620;BME280;12763;55.802;37.404;2023-05-31T06:31:57;99115.19;;;15.34;100.00
24620;BME280;12763;55.802;37.404;2023-05-31T06:34:26;99115.56;;;15.42;100.00
24620;BME280;12763;55.802;37.404;2023-05-31T06:36:53;99110.94;;;15.48;100.00
24620;BME280;12763;55.802;37.404;2023-05-31T06:39:20;99111.63;;;15.38;100.00
24620;BME280;12763;55.802;37.404;2023-05-31T06:41:46;99111.50;;;15.28;100.00
24620;BME280;12763;55.802;37.404;2023-05-31T06:44:31;99100.13;;;15.29;100.00
24620;BME280;12763;55.802;37.404;2023-05-31T06:47:05;99105.41;;;15.31;100.00
24620;BME280;12763;55.802;37.404;2023-05-31T06:50:00;99105.94;;;15.28;100.00
24620;BME280;12763;55.802;37.404;2023-05-31T06:52:42;99107.03;;;15.05;100.00
24620;BME280;12763;55.802;37.404;2023-05-31T06:55:27;99108.38;;;15.03;100.00
24620;BME280;12763;55.802;37.404;2023-05-31T06:57:53;99110.03;;;15.20;100.00
24620;BME280;12763;55.802;37.404;2023-05-31T07:00:19;99113.56;;;15.38;100.00
24620;BME280;12763;55.802;37.404;2023-05-31T07:02:45;99118.53;;;15.36;100.00
24620;BME280;12763;55.802;37.404;2023-05-31T07:05:11;99110.75;;;15.33;100.00
24620;BME280;12763;55.802;37.404;2023-05-31T07:07:37;99109.56;;;15.07;100.00
24620;BME280;12763;55.802;37.404;2023-05-31T07:10:03;99107.19;;;15.15;100.00
24620;BME280;12763;55.802;37.404;2023-05-31T07:12:30;99108.38;;;15.03;100.00
24620;BME280;12763;55.802;37.404;2023-05-31T07:14:56;99115.75;;;14.92;100.00
24620;BME280;12763;55.802;37.404;2023-05-31T07:17:22;99115.16;;;14.52;100.00
24620;BME280;12763;55.802;37.404;2023-05-31T07:19:49;99116.19;;;14.84;100.00
24620;BME280;12763;55.802;37.404;2023-05-31T07:22:16;99112.63;;;15.27;100.00
24620;BME280;12763;55.802;37.404;2023-05-31T07:24:43;99105.75;;;15.35;100.00
24620;BME280;12763;55.802;37.404;2023-05-31T07:27:09;99109.94;;;15.37;100.00
24620;BME280;12763;55.802;37.404;2023-05-31T07:29:36;99097.13;;;15.36;100.00
24620;BME280;12763;55.802;37.404;2023-05-31T07:32:03;99104.19;;;15.00;100.00
24620;BME280;12763;55.802;37.404;2023-05-31T07:34:29;99109.28;;;15.08;100.00
24620;BME280;12763;55.802;37.404;2023-05-31T07:36:54;99102.19;;;14.96;100.00
24620;BME280;12763;55.802;37.404;2023-05-31T07:39:21;99108.28;;;15.14;100.00
24620;BME280;12763;55.802;37.404;2023-05-31T07:41:47;99106.38;;;15.42;100.00
24620;BME280;12763;55.802;37.404;2023-05-31T07:44:14;99094.56;;;15.29;100.00
24620;BME280;12763;55.802;37.404;2023-05-31T07:46:42;99106.00;;;15.11;100.00
24620;BME280;12763;55.802;37.404;2023-05-31T07:49:08;99106.59;;;15.35;100.00
24620;BME280;12763;55.802;37.404;2023-05-31T07:51:34;99098.72;;;15.49;100.00
24620;BME280;12763;55.802;37.404;2023-05-31T07:54:02;99098.16;;;15.30;100.00
24620;BME280;12763;55.802;37.404;2023-05-31T07:56:29;99094.97;;;15.38;100.00
24620;BME280;12763;55.802;37.404;2023-05-31T07:58:55;99092.16;;;15.16;100.00
24620;BME280;12763;55.802;37.404;2023-05-31T08:01:21;99096.50;;;15.29;100.00
24620;BME280;12763;55.802;37.404;2023-05-31T08:03:47;99089.72;;;15.20;100.00
24620;BME280;12763;55.802;37.404;2023-05-31T08:06:15;99092.22;;;15.00;100.00
24620;BME280;12763;55.802;37.404;2023-05-31T08:08:43;99093.59;;;14.97;100.00
24620;BME280;12763;55.802;37.404;2023-05-31T08:11:09;99093.47;;;14.87;100.00
24620;BME280;12763;55.802;37.404;2023-05-31T08:13:36;99093.66;;;15.02;100.00
24620;BME280;12763;55.802;37.404;2023-05-31T08:16:02;99100.50;;;14.95;100.00
24620;BME280;12763;55.802;37.404;2023-05-31T08:18:28;99090.97;;;14.86;100.00
24620;BME280;12763;55.802;37.404;2023-05-31T08:20:53;99100.81;;;14.77;100.00
24620;BME280;12763;55.802;37.404;2023-05-31T08:23:21;99098.63;;;14.79;100.00
24620;BME280;12763;55.802;37.404;2023-05-31T08:25:47;99099.97;;;14.76;100.00
24620;BME280;12763;55.802;37.404;2023-05-31T08:28:14;99100.00;;;14.98;100.00
24620;BME280;12763;55.802;37.404;2023-05-31T08:30:40;99104.63;;;14.70;100.00
24620;BME280;12763;55.802;37.404;2023-05-31T08:33:06;99108.00;;;14.56;100.00
24620;BME280;12763;55.802;37.404;2023-05-31T08:35:32;99121.72;;;14.29;100.00
24620;BME280;12763;55.802;37.404;2023-05-31T08:37:58;99105.97;;;14.18;100.00
24620;BME280;12763;55.802;37.404;2023-05-31T08:40:24;99125.97;;;13.87;100.00
24620;BME280;12763;55.802;37.404;2023-05-31T08:43:06;99130.44;;;14.04;100.00
24620;BME280;12763;55.802;37.404;2023-05-31T08:45:44;99141.84;;;13.75;100.00
24620;BME280;12763;55.802;37.404;2023-05-31T08:50:52;99142.56;;;13.70;100.00
24620;BME280;12763;55.802;37.404;2023-05-31T08:53:19;99138.66;;;13.54;100.00
24620;BME280;12763;55.802;37.404;2023-05-31T08:55:46;99142.03;;;13.57;100.00
24620;BME280;12763;55.802;37.404;2023-05-31T08:58:14;99141.19;;;13.28;100.00
24620;BME280;12763;55.802;37.404;2023-05-31T09:00:41;99142.25;;;13.67;100.00
24620;BME280;12763;55.802;37.404;2023-05-31T09:03:08;99149.78;;;13.71;100.00
24620;BME280;12763;55.802;37.404;2023-05-31T09:05:35;99151.59;;;13.77;100.00
24620;BME280;12763;55.802;37.404;2023-05-31T09:08:01;99148.34;;;13.97;100.00
24620;BME280;12763;55.802;37.404;2023-05-31T09:10:29;99150.06;;;13.70;100.00
24620;BME280;12763;55.802;37.404;2023-05-31T09:12:55;99147.38;;;13.75;100.00
24620;BME280;12763;55.802;37.404;2023-05-31T09:15:24;99152.34;;;13.89;100.00
24620;BME280;12763;55.802;37.404;2023-05-31T09:17:51;99145.97;;;13.89;100.00
24620;BME280;12763;55.802;37.404;2023-05-31T09:20:18;99158.41;;;13.58;100.00
24620;BME280;12763;55.802;37.404;2023-05-31T09:22:48;99157.72;;;13.79;100.00
24620;BME280;12763;55.802;37.404;2023-05-31T09:25:16;99145.59;;;13.69;100.00
24620;BME280;12763;55.802;37.404;2023-05-31T09:27:43;99142.44;;;13.93;100.00
24620;BME280;12763;55.802;37.404;2023-05-31T09:30:11;99142.88;;;14.02;100.00
24620;BME280;12763;55.802;37.404;2023-05-31T09:32:37;99149.66;;;13.78;100.00
24620;BME280;12763;55.802;37.404;2023-05-31T09:35:13;99145.66;;;14.02;100.00
24620;BME280;12763;55.802;37.404;2023-05-31T09:37:48;99134.56;;;14.19;100.00
24620;BME280;12763;55.802;37.404;2023-05-31T09:40:25;99143.97;;;14.84;100.00
24620;BME280;12763;55.802;37.404;2023-05-31T09:42:53;99138.94;;;14.81;100.00
24620;BME280;12763;55.802;37.404;2023-05-31T09:45:20;99142.41;;;14.72;100.00
24620;BME280;12763;55.802;37.404;2023-05-31T09:47:47;99144.94;;;14.95;100.00
24620;BME280;12763;55.802;37.404;2023-05-31T09:50:18;99140.59;;;15.42;100.00
24620;BME280;12763;55.802;37.404;2023-05-31T09:52:45;99134.63;;;15.12;100.00
24620;BME280;12763;55.802;37.404;2023-05-31T09:55:13;99137.34;;;15.28;100.00
24620;BME280;12763;55.802;37.404;2023-05-31T09:57:41;99139.44;;;14.78;100.00
24620;BME280;12763;55.802;37.404;2023-05-31T10:00:08;99138.03;;;14.97;100.00
24620;BME280;12763;55.802;37.404;2023-05-31T10:02:49;99145.84;;;14.29;100.00
24620;BME280;12763;55.802;37.404;2023-05-31T10:05:15;99148.03;;;14.27;100.00
24620;BME280;12763;55.802;37.404;2023-05-31T10:07:46;99149.53;;;14.18;100.00
24620;BME280;12763;55.802;37.404;2023-05-31T10:10:12;99154.13;;;13.95;100.00
24620;BME280;12763;55.802;37.404;2023-05-31T10:12:57;99161.94;;;12.79;100.00
24620;BME280;12763;55.802;37.404;2023-05-31T10:15:24;99158.84;;;13.38;100.00
24620;BME280;12763;55.802;37.404;2023-05-31T10:17:58;99166.69;;;13.30;100.00
24620;BME280;12763;55.802;37.404;2023-05-31T10:20:32;99178.38;;;13.32;100.00
24620;BME280;12763;55.802;37.404;2023-05-31T10:23:01;99167.00;;;14.01;100.00
24620;BME280;12763;55.802;37.404;2023-05-31T10:25:31;99171.94;;;14.44;100.00
24620;BME280;12763;55.802;37.404;2023-05-31T10:28:07;99172.47;;;14.41;100.00
24620;BME280;12763;55.802;37.404;2023-05-31T10:30:35;99205.03;;;14.18;100.00
24620;BME280;12763;55.802;37.404;2023-05-31T10:33:07;99180.69;;;13.63;100.00
24620;BME280;12763;55.802;37.404;2023-05-31T10:35:34;99179.63;;;14.09;100.00
24620;BME280;12763;55.802;37.404;2023-05-31T10:38:01;99180.53;;;14.43;100.00
24620;BME280;12763;55.802;37.404;2023-05-31T10:40:49;99179.03;;;14.35;100.00
24620;BME280;12763;55.802;37.404;2023-05-31T10:46:04;99182.81;;;14.01;100.00
24620;BME280;12763;55.802;37.404;2023-05-31T10:51:00;99188.28;;;14.41;100.00
24620;BME280;12763;55.802;37.404;2023-05-31T10:53:46;99177.56;;;15.43;98.87
24620;BME280;12763;55.802;37.404;2023-05-31T10:56:15;99185.72;;;14.73;95.83
24620;BME280;12763;55.802;37.404;2023-05-31T10:58:50;99177.78;;;14.98;96.35
24620;BME280;12763;55.802;37.404;2023-05-31T11:01:18;99200.22;;;14.91;96.16
24620;BME280;12763;55.802;37.404;2023-05-31T11:03:51;99186.63;;;14.95;95.85
24620;BME280;12763;55.802;37.404;2023-05-31T11:06:26;99175.25;;;15.35;93.56
24620;BME280;12763;55.802;37.404;2023-05-31T11:09:12;99185.19;;;16.22;87.63
24620;BME280;12763;55.802;37.404;2023-05-31T11:14:22;99186.38;;;16.31;86.30
24620;BME280;12763;55.802;37.404;2023-05-31T11:19:36;99188.94;;;15.41;88.73
24620;BME280;12763;55.802;37.404;2023-05-31T11:22:14;99190.78;;;16.27;85.63
24620;BME280;12763;55.802;37.404;2023-05-31T11:24:52;99185.78;;;15.33;85.90
24620;BME280;12763;55.802;37.404;2023-05-31T11:27:23;99185.59;;;14.46;93.82
24620;BME280;12763;55.802;37.404;2023-05-31T11:29:59;99205.13;;;14.23;93.35
24620;BME280;12763;55.802;37.404;2023-05-31T11:35:05;99200.59;;;13.88;96.65
24620;BME280;12763;55.802;37.404;2023-05-31T11:37:33;99204.47;;;13.87;95.36
24620;BME280;12763;55.802;37.404;2023-05-31T11:40:02;99195.94;;;13.37;98.47
24620;BME280;12763;55.802;37.404;2023-05-31T11:42:34;99211.50;;;13.38;99.11
24620;BME280;12763;55.802;37.404;2023-05-31T11:45:04;99208.16;;;13.13;99.46
24620;BME280;12763;55.802;37.404;2023-05-31T11:47:52;99207.63;;;13.39;97.67
24620;BME280;12763;55.802;37.404;2023-05-31T11:50:19;99210.53;;;13.44;97.49
24620;BME280;12763;55.802;37.404;2023-05-31T11:52:45;99209.97;;;13.31;98.98
24620;BME280;12763;55.802;37.404;2023-05-31T11:55:15;99210.84;;;13.48;97.14
24620;BME280;12763;55.802;37.404;2023-05-31T11:57:46;99208.63;;;13.33;97.01
24620;BME280;12763;55.802;37.404;2023-05-31T12:00:15;99203.22;;;13.27;98.45
24620;BME280;12763;55.802;37.404;2023-05-31T12:02:43;99199.28;;;13.51;97.14
24620;BME280;12763;55.802;37.404;2023-05-31T12:05:16;99203.06;;;13.73;94.54
24620;BME280;12763;55.802;37.404;2023-05-31T12:07:42;99217.31;;;13.65;93.99
24620;BME280;12763;55.802;37.404;2023-05-31T12:10:08;99205.94;;;13.78;93.15
24620;BME280;12763;55.802;37.404;2023-05-31T12:12:35;99200.06;;;13.75;91.88
24620;BME280;12763;55.802;37.404;2023-05-31T12:15:01;99211.56;;;13.55;90.32
24620;BME280;12763;55.802;37.404;2023-05-31T12:17:31;99194.84;;;13.50;92.17
24620;BME280;12763;55.802;37.404;2023-05-31T12:19:59;99208.53;;;13.57;92.02
24620;BME280;12763;55.802;37.404;2023-05-31T12:22:25;99191.84;;;13.40;91.13
24620;BME280;12763;55.802;37.404;2023-05-31T12:24:54;99184.75;;;13.32;90.51
24620;BME280;12763;55.802;37.404;2023-05-31T12:27:23;99197.53;;;13.33;89.98
24620;BME280;12763;55.802;37.404;2023-05-31T12:29:49;99191.47;;;13.48;91.19
24620;BME280;12763;55.802;37.404;2023-05-31T12:32:17;99189.91;;;13.52;90.87
24620;BME280;12763;55.802;37.404;2023-05-31T12:34:46;99189.75;;;13.59;90.32
24620;BME280;12763;55.802;37.404;2023-05-31T12:37:13;99197.03;;;13.76;89.77
24620;BME280;12763;55.802;37.404;2023-05-31T12:39:39;99194.84;;;13.50;91.93
24620;BME280;12763;55.802;37.404;2023-05-31T12:42:06;99190.25;;;13.56;91.80
24620;BME280;12763;55.802;37.404;2023-05-31T12:44:33;99195.66;;;13.50;92.74
24620;BME280;12763;55.802;37.404;2023-05-31T12:47:01;99189.09;;;13.68;91.25
24620;BME280;12763;55.802;37.404;2023-05-31T12:49:28;99185.03;;;13.59;92.30
24620;BME280;12763;55.802;37.404;2023-05-31T12:52:02;99186.34;;;13.68;92.44
24620;BME280;12763;55.802;37.404;2023-05-31T12:54:38;99190.28;;;14.00;92.15
24620;BME280;12763;55.802;37.404;2023-05-31T12:57:07;99197.59;;;14.06;89.65
24620;BME280;12763;55.802;37.404;2023-05-31T12:59:35;99185.38;;;14.19;89.28
24620;BME280;12763;55.802;37.404;2023-05-31T13:02:02;99187.50;;;14.00;91.92
24620;BME280;12763;55.802;37.404;2023-05-31T13:04:30;99200.72;;;14.38;89.20
24620;BME280;12763;55.802;37.404;2023-05-31T13:06:56;99192.06;;;14.35;89.15
24620;BME280;12763;55.802;37.404;2023-05-31T13:09:25;99189.56;;;14.22;89.50
24620;BME280;12763;55.802;37.404;2023-05-31T13:11:51;99187.22;;;14.30;89.59
24620;BME280;12763;55.802;37.404;2023-05-31T13:14:19;99192.94;;;14.24;89.99
24620;BME280;12763;55.802;37.404;2023-05-31T13:16:46;99196.00;;;14.39;88.81